Time;durP1;ratioP1;P1;durP2;ratioP2;P2;SDS_P1;SDS_P2;PMS_P1;PMS_P2;Temp;Humidity;BMP_temperature;BMP_pressure;BME280_temperature;BME280_humidity;BME280_pressure;Samples;Min_cycle;Max_cycle;Signal;HPM_P1;HPM_P2
2021/03/04 00:02:12;;;;;;;35.35;17.73;;;;;;;0.14;62.08;94402.25;5070302;28;20024;-46
2021/03/04 00:04:38;;;;;;;30.27;16.10;;;;;;;-0.04;61.51;94401.09;5070476;28;20028;-47
2021/03/04 00:07:03;;;;;;;49.00;26.45;;;;;;;0.31;61.95;94406.88;5074834;28;20028;-47
2021/03/04 00:09:29;;;;;;;36.53;20.25;;;;;;;0.17;61.95;94409.50;5089091;28;20080;-49
2021/03/04 00:11:54;;;;;;;13.52;8.65;;;;;;;0.20;61.49;94381.41;5090263;28;20027;-47
2021/03/04 00:14:20;;;;;;;13.80;7.97;;;;;;;-0.04;61.52;94381.34;5090275;28;20416;-46
2021/03/04 00:16:45;;;;;;;17.38;8.80;;;;;;;0.22;61.92;94400.75;5090487;28;20043;-49
2021/03/04 00:19:11;;;;;;;25.15;12.60;;;;;;;0.33;60.52;94393.56;5090082;28;20012;-48
2021/03/04 00:21:36;;;;;;;19.50;10.95;;;;;;;0.03;61.13;94391.88;5090372;28;20032;-47
2021/03/04 00:24:02;;;;;;;22.88;12.52;;;;;;;-0.01;63.11;94385.88;5090052;28;20111;-46
2021/03/04 00:26:27;;;;;;;23.92;12.43;;;;;;;-0.01;62.03;94381.19;5090327;28;20040;-42
2021/03/04 00:28:53;;;;;;;20.15;11.93;;;;;;;-0.17;62.48;94384.25;5090312;28;20024;-41
2021/03/04 00:31:18;;;;;;;23.30;13.50;;;;;;;-0.47;63.25;94373.63;5090183;28;20040;-42
2021/03/04 00:33:44;;;;;;;22.20;12.98;;;;;;;-0.57;63.59;94369.44;5090178;28;20024;-46
2021/03/04 00:36:09;;;;;;;36.03;18.02;;;;;;;-0.57;63.76;94378.34;5088627;28;20114;-46
2021/03/04 00:38:35;;;;;;;26.70;15.68;;;;;;;-0.48;63.64;94367.47;5089577;28;20054;-46
2021/03/04 00:41:00;;;;;;;27.58;17.55;;;;;;;-0.37;63.28;94364.28;5087386;28;20028;-46
2021/03/04 00:43:26;;;;;;;25.13;14.13;;;;;;;-0.40;63.49;94365.19;5069148;28;20060;-47
2021/03/04 00:45:51;;;;;;;35.17;18.92;;;;;;;-0.22;63.71;94357.72;5069712;28;20137;-47
2021/03/04 00:48:17;;;;;;;34.20;18.10;;;;;;;-0.19;63.63;94345.97;5068396;28;20084;-47
2021/03/04 00:50:42;;;;;;;34.17;17.50;;;;;;;-0.04;62.88;94344.09;5069891;28;20025;-47
2021/03/04 00:53:08;;;;;;;22.42;10.85;;;;;;;-0.28;62.77;94348.72;5072177;28;20520;-48
2021/03/04 00:55:34;;;;;;;17.70;9.13;;;;;;;-0.16;62.67;94353.22;5073219;28;20029;-48
2021/03/04 00:58:00;;;;;;;15.32;9.18;;;;;;;-0.31;61.65;94343.47;5073220;28;20025;-49
2021/03/04 01:00:25;;;;;;;15.85;9.43;;;;;;;-0.08;61.63;94342.75;5073127;28;20024;-47
2021/03/04 01:02:51;;;;;;;20.13;11.45;;;;;;;0.00;61.79;94339.25;5073193;28;20048;-49
2021/03/04 01:05:16;;;;;;;21.40;9.98;;;;;;;-0.39;62.09;94334.88;5073116;28;20020;-47
2021/03/04 01:07:42;;;;;;;20.35;10.35;;;;;;;-0.21;61.84;94328.63;5083159;28;20415;-47
2021/03/04 01:10:13;;;;;;;20.13;10.88;;;;;;;-0.07;61.79;94333.44;5093123;28;20032;-47
2021/03/04 01:12:39;;;;;;;15.73;9.73;;;;;;;-0.16;61.53;94320.66;5092056;28;20053;-47
2021/03/04 01:15:12;;;;;;;16.55;10.23;;;;;;;-0.48;62.60;94305.09;5093094;28;20028;-47
2021/03/04 01:17:37;;;;;;;22.65;12.10;;;;;;;-0.37;62.15;94310.03;5093189;28;20514;-48
2021/03/04 01:20:07;;;;;;;21.05;12.30;;;;;;;-0.40;61.81;94310.91;5093090;28;20028;-48
2021/03/04 01:22:33;;;;;;;19.17;12.45;;;;;;;-0.69;62.75;94311.44;5093121;28;20028;-45
2021/03/04 01:24:58;;;;;;;19.95;11.50;;;;;;;-0.52;62.25;94298.31;5093073;28;20035;-45
2021/03/04 01:27:24;;;;;;;24.38;13.13;;;;;;;-0.37;61.92;94299.91;5092908;28;20043;-49
2021/03/04 01:29:49;;;;;;;27.38;14.10;;;;;;;-0.68;62.57;94304.81;5092734;28;20032;-48
2021/03/04 01:32:14;;;;;;;18.33;11.20;;;;;;;-1.04;63.48;94272.38;5092870;28;20031;-48
2021/03/04 01:34:40;;;;;;;17.73;10.07;;;;;;;-0.92;63.87;94274.16;5092893;28;20028;-48
2021/03/04 01:37:05;;;;;;;15.27;8.73;;;;;;;-1.02;63.30;94297.06;5092411;28;20062;-48
2021/03/04 01:39:31;;;;;;;19.13;11.00;;;;;;;-0.92;63.18;94293.13;5092794;28;20035;-47
2021/03/04 01:41:56;;;;;;;17.00;11.02;;;;;;;-0.73;62.60;94272.91;5092693;28;20035;-50
2021/03/04 01:44:22;;;;;;;19.35;11.27;;;;;;;-0.60;62.82;94280.84;5092462;28;20032;-49
2021/03/04 01:46:47;;;;;;;15.88;9.40;;;;;;;-0.74;62.73;94274.13;5092479;28;20027;-52
2021/03/04 01:49:13;;;;;;;18.98;11.27;;;;;;;-0.52;62.56;94285.47;5092472;28;20028;-50
2021/03/04 01:51:38;;;;;;;25.23;12.38;;;;;;;-0.53;62.36;94288.66;5092372;28;20028;-48
2021/03/04 01:54:05;;;;;;;25.27;13.55;;;;;;;-0.56;62.94;94284.91;5092530;28;20474;-50
2021/03/04 01:56:30;;;;;;;22.00;13.43;;;;;;;-0.48;62.36;94277.97;5092413;28;20024;-52
2021/03/04 01:58:56;;;;;;;21.60;12.20;;;;;;;-0.47;61.65;94271.31;5092254;28;20058;-49
2021/03/04 02:01:22;;;;;;;26.50;13.55;;;;;;;-0.70;62.42;94271.25;5092399;28;20035;-48
2021/03/04 02:03:47;;;;;;;22.48;13.18;;;;;;;-0.59;61.98;94272.25;5090931;28;20035;-48
2021/03/04 02:06:13;;;;;;;15.63;8.52;;;;;;;-1.19;63.26;94237.00;5092158;28;20030;-49
2021/03/04 02:08:45;;;;;;;12.55;7.95;;;;;;;-1.29;63.25;94264.56;5072670;28;20028;-51
2021/03/04 02:11:25;;;;;;;18.52;9.40;;;;;;;-1.14;64.73;94268.91;5069471;28;20032;-48
2021/03/04 02:14:02;;;;;;;15.88;9.55;;;;;;;-0.96;63.26;94276.28;5088679;28;20032;-47
2021/03/04 02:16:40;;;;;;;17.63;9.35;;;;;;;-0.95;62.99;94272.34;5092163;28;20035;-50
2021/03/04 02:19:28;;;;;;;14.85;9.23;;;;;;;-0.94;63.34;94271.13;5091991;28;20497;-47
2021/03/04 02:22:19;;;;;;;15.60;9.32;;;;;;;-0.92;63.56;94263.31;5091908;28;20028;-49
2021/03/04 02:25:13;;;;;;;22.13;10.45;;;;;;;-0.83;62.74;94264.06;5087752;28;20569;-48
2021/03/04 02:27:39;;;;;;;18.48;11.93;;;;;;;-0.80;63.89;94263.13;5091844;28;20024;-48
2021/03/04 02:30:13;;;;;;;23.77;12.38;;;;;;;-0.89;63.78;94259.69;5081572;28;20064;-46
2021/03/04 02:32:49;;;;;;;24.58;13.88;;;;;;;-1.05;63.93;94262.72;5070113;28;20032;-47
2021/03/04 02:35:31;;;;;;;18.20;12.43;;;;;;;-0.89;63.65;94259.69;5070351;28;20414;-49
2021/03/04 02:38:02;;;;;;;16.42;9.45;;;;;;;-0.97;62.23;94261.97;5071054;28;20107;-48
2021/03/04 02:40:30;;;;;;;14.68;8.77;;;;;;;-0.97;63.13;94261.19;5069980;28;20040;-49
2021/03/04 02:42:56;;;;;;;20.83;12.02;;;;;;;-0.92;63.84;94261.34;5070160;28;20115;-51
2021/03/04 02:45:25;;;;;;;22.73;12.90;;;;;;;-1.00;64.44;94245.88;5069935;28;20409;-50
2021/03/04 02:47:51;;;;;;;20.42;11.88;;;;;;;-1.15;64.23;94258.53;5071218;28;20386;-48
2021/03/04 02:50:17;;;;;;;18.15;10.00;;;;;;;-1.13;63.58;94250.69;5071219;28;20043;-46
2021/03/04 02:52:43;;;;;;;19.73;10.30;;;;;;;-1.00;62.61;94256.72;5071200;28;20035;-48
2021/03/04 02:55:09;;;;;;;17.75;10.07;;;;;;;-1.05;62.49;94252.66;5069931;28;20025;-46
2021/03/04 02:57:39;;;;;;;17.10;10.50;;;;;;;-1.10;62.57;94255.19;5070036;28;20066;-47
2021/03/04 03:00:06;;;;;;;15.43;9.05;;;;;;;-1.25;62.51;94246.19;5071130;28;20404;-47
2021/03/04 03:02:32;;;;;;;15.95;9.30;;;;;;;-1.02;62.68;94242.84;5070981;28;20028;-46
2021/03/04 03:04:58;;;;;;;15.80;10.20;;;;;;;-1.08;63.28;94248.13;5071081;28;20093;-47
2021/03/04 03:07:25;;;;;;;15.65;9.05;;;;;;;-1.30;63.31;94219.72;5070818;28;20020;-47
2021/03/04 03:09:50;;;;;;;15.90;9.10;;;;;;;-1.45;63.57;94251.34;5069663;28;20036;-48
2021/03/04 03:12:17;;;;;;;14.40;8.63;;;;;;;-1.69;63.95;94238.38;5070890;28;20054;-50
2021/03/04 03:14:42;;;;;;;20.98;11.27;;;;;;;-1.84;64.83;94245.59;5070328;28;20031;-49
2021/03/04 03:17:09;;;;;;;31.00;15.38;;;;;;;-1.87;65.75;94249.22;5070878;28;20028;-47
2021/03/04 03:19:35;;;;;;;26.95;15.70;;;;;;;-1.93;65.29;94256.44;5070925;28;20047;-47
2021/03/04 03:22:01;;;;;;;24.63;13.90;;;;;;;-1.74;64.86;94246.38;5070701;28;20493;-47
2021/03/04 03:24:26;;;;;;;29.92;15.63;;;;;;;-1.52;65.29;94243.50;5070568;28;20032;-45
2021/03/04 03:26:52;;;;;;;32.33;15.55;;;;;;;-1.41;65.21;94246.53;5070730;28;20031;-45
2021/03/04 03:29:18;;;;;;;33.20;16.08;;;;;;;-1.73;64.69;94213.41;5070499;28;20132;-47
2021/03/04 03:31:47;;;;;;;29.67;15.73;;;;;;;-1.52;65.26;94248.94;5070661;28;20107;-46
2021/03/04 03:34:13;;;;;;;29.92;15.05;;;;;;;-1.48;64.84;94235.97;5070644;28;20111;-46
2021/03/04 03:36:39;;;;;;;32.38;15.75;;;;;;;-1.45;64.83;94243.22;5068673;28;20065;-47
2021/03/04 03:39:06;;;;;;;24.75;12.75;;;;;;;-1.63;65.44;94233.13;5068459;28;20040;-46
2021/03/04 03:41:33;;;;;;;20.85;10.43;;;;;;;-1.79;64.11;94238.81;5070495;28;20024;-48
2021/03/04 03:43:59;;;;;;;24.05;11.40;;;;;;;-1.76;64.42;94238.69;5070575;28;20059;-46
2021/03/04 03:46:25;;;;;;;19.55;11.07;;;;;;;-1.81;64.82;94238.53;5070537;28;20028;-45
2021/03/04 03:48:51;;;;;;;24.95;13.52;;;;;;;-1.70;64.54;94239.59;5069340;28;20111;-45
2021/03/04 03:51:17;;;;;;;21.83;12.70;;;;;;;-1.90;65.33;94222.28;5070430;28;20100;-44
2021/03/04 03:53:43;;;;;;;18.00;10.88;;;;;;;-2.01;64.58;94219.25;5070373;28;20107;-44
2021/03/04 03:56:09;;;;;;;21.77;11.13;;;;;;;-2.12;64.74;94227.06;5070238;28;20038;-45
2021/03/04 03:58:36;;;;;;;25.30;12.95;;;;;;;-2.03;65.73;94229.78;5070290;28;20024;-44
2021/03/04 04:01:02;;;;;;;22.73;13.73;;;;;;;-1.85;65.38;94233.28;5070228;28;20024;-47
2021/03/04 04:03:29;;;;;;;26.98;15.13;;;;;;;-1.87;65.14;94226.81;5070236;28;20097;-45
2021/03/04 04:05:54;;;;;;;20.63;12.15;;;;;;;-1.96;65.44;94232.97;5070041;28;20040;-46
2021/03/04 04:08:21;;;;;;;22.10;12.00;;;;;;;-2.06;64.99;94228.75;5085712;28;20020;-47
2021/03/04 04:10:47;;;;;;;19.15;9.98;;;;;;;-1.97;64.88;94228.72;5089170;28;20640;-48
2021/03/04 04:13:16;;;;;;;23.02;11.18;;;;;;;-1.91;64.70;94216.13;5090384;28;20030;-45
2021/03/04 04:15:41;;;;;;;25.23;13.05;;;;;;;-2.05;65.16;94203.19;5090390;28;20108;-47
2021/03/04 04:18:07;;;;;;;24.67;11.88;;;;;;;-1.94;65.27;94221.69;5090388;28;20126;-45
2021/03/04 04:20:33;;;;;;;20.02;11.07;;;;;;;-1.95;64.93;94218.22;5090179;28;20450;-45
2021/03/04 04:22:59;;;;;;;23.55;12.20;;;;;;;-1.86;65.18;94212.06;5089139;28;20028;-47
2021/03/04 04:25:25;;;;;;;19.58;10.25;;;;;;;-2.01;65.29;94217.31;5088985;28;20035;-44
2021/03/04 04:27:51;;;;;;;24.67;12.40;;;;;;;-1.98;64.82;94210.25;5092419;28;20031;-48
2021/03/04 04:30:17;;;;;;;23.50;10.50;;;;;;;-1.91;64.71;94208.00;5093882;28;20512;-46
2021/03/04 04:32:44;;;;;;;27.98;12.85;;;;;;;-2.02;64.48;94204.25;5092785;28;20028;-46
2021/03/04 04:35:11;;;;;;;22.58;11.80;;;;;;;-2.30;66.57;94212.28;5093827;28;20036;-47
2021/03/04 04:37:36;;;;;;;19.67;10.02;;;;;;;-2.11;65.55;94201.50;5093350;28;20055;-46
2021/03/04 04:40:03;;;;;;;24.00;12.27;;;;;;;-2.23;65.42;94202.41;5093940;28;20028;-45
2021/03/04 04:42:28;;;;;;;24.25;11.70;;;;;;;-2.19;65.32;94182.13;5093752;28;20039;-48
2021/03/04 04:44:54;;;;;;;31.77;14.50;;;;;;;-2.41;65.04;94198.47;5093683;28;20031;-48
2021/03/04 04:47:19;;;;;;;81.07;35.90;;;;;;;-2.41;66.26;94190.38;5093619;28;20529;-44
2021/03/04 04:49:45;;;;;;;85.47;36.42;;;;;;;-2.48;65.61;94195.28;5093143;28;20035;-45
2021/03/04 04:52:10;;;;;;;86.30;34.00;;;;;;;-2.44;66.12;94185.84;5093555;28;20044;-45
2021/03/04 04:54:36;;;;;;;65.68;26.70;;;;;;;-2.57;65.53;94184.44;5093416;28;20023;-46
2021/03/04 04:57:01;;;;;;;76.78;34.67;;;;;;;-2.44;66.22;94185.84;5093369;28;20031;-46
2021/03/04 04:59:26;;;;;;;73.70;31.85;;;;;;;-2.40;65.76;94189.16;5093351;28;20024;-45
2021/03/04 05:01:52;;;;;;;68.55;28.55;;;;;;;-2.24;65.39;94187.38;5093324;28;20555;-46
2021/03/04 05:04:17;;;;;;;77.65;31.05;;;;;;;-2.36;65.88;94187.03;5091948;28;20024;-46
2021/03/04 05:06:43;;;;;;;77.10;31.98;;;;;;;-2.38;65.07;94185.97;5090863;28;20043;-44
2021/03/04 05:09:08;;;;;;;57.72;25.48;;;;;;;-2.46;65.77;94182.84;5072794;28;20032;-46
2021/03/04 05:11:34;;;;;;;51.97;22.00;;;;;;;-2.46;65.10;94192.88;5072833;28;20035;-48
2021/03/04 05:14:01;;;;;;;37.75;20.15;;;;;;;-2.33;64.89;94188.88;5079977;28;20111;-46
2021/03/04 05:16:26;;;;;;;43.03;20.77;;;;;;;-2.32;64.98;94190.34;5093043;28;20032;-45
2021/03/04 05:18:51;;;;;;;53.95;23.95;;;;;;;-2.61;65.40;94176.47;5092785;28;20016;-45
2021/03/04 05:21:17;;;;;;;68.32;27.30;;;;;;;-2.84;66.41;94177.03;5092966;28;20065;-44
2021/03/04 05:23:42;;;;;;;46.80;22.42;;;;;;;-2.93;67.01;94141.09;5091551;28;20038;-46
2021/03/04 05:26:08;;;;;;;54.30;27.60;;;;;;;-2.50;66.64;94179.53;5092697;28;20119;-43
2021/03/04 05:28:33;;;;;;;52.67;25.98;;;;;;;-2.48;65.66;94173.66;5092674;28;20075;-48
2021/03/04 05:30:59;;;;;;;57.20;27.88;;;;;;;-2.25;65.48;94170.38;5092552;28;20063;-47
2021/03/04 05:33:24;;;;;;;58.65;30.25;;;;;;;-2.20;64.86;94155.50;5072700;28;20107;-53
2021/03/04 05:35:49;;;;;;;56.67;26.52;;;;;;;-2.11;65.13;94172.53;5071300;28;20086;-48
2021/03/04 05:38:15;;;;;;;61.28;29.92;;;;;;;-2.12;64.97;94156.75;5069378;28;20487;-47
2021/03/04 05:40:40;;;;;;;62.25;31.27;;;;;;;-1.86;64.90;94171.47;5071436;28;20017;-48
2021/03/04 05:43:06;;;;;;;63.15;31.58;;;;;;;-2.05;65.91;94168.00;5071363;28;20032;-47
2021/03/04 05:45:33;;;;;;;62.22;31.88;;;;;;;-2.09;66.00;94172.81;5070926;28;20420;-48
2021/03/04 05:48:01;;;;;;;49.45;28.05;;;;;;;-1.91;65.80;94167.44;5069820;28;20039;-48
2021/03/04 05:50:28;;;;;;;60.03;29.05;;;;;;;-1.85;65.47;94164.84;5070991;28;20028;-46
2021/03/04 05:53:05;;;;;;;63.40;26.10;;;;;;;-1.84;65.80;94169.09;5071340;28;20059;-46
2021/03/04 05:55:31;;;;;;;48.58;25.33;;;;;;;-1.75;65.97;94172.50;5068669;28;20039;-47
2021/03/04 05:57:57;;;;;;;52.00;25.77;;;;;;;-1.87;67.21;94164.56;5069973;28;20032;-46
2021/03/04 06:00:23;;;;;;;49.25;26.80;;;;;;;-1.78;66.08;94159.16;5070852;28;20028;-46
2021/03/04 06:02:50;;;;;;;54.28;24.83;;;;;;;-1.62;66.70;94159.56;5070832;28;20064;-49
2021/03/04 06:05:16;;;;;;;55.50;25.10;;;;;;;-1.51;66.14;94156.41;5084714;28;20028;-46
2021/03/04 06:07:45;;;;;;;44.72;25.60;;;;;;;-1.68;66.43;94144.38;5086114;28;20023;-49
2021/03/04 06:10:12;;;;;;;51.92;25.48;;;;;;;-1.32;67.21;94154.41;5090611;28;20515;-48
2021/03/04 06:12:37;;;;;;;72.50;34.08;;;;;;;-1.23;67.40;94148.97;5090545;28;20043;-48
2021/03/04 06:15:05;;;;;;;122.45;52.53;;;;;;;-1.34;67.00;94140.59;5090739;28;20036;-50
2021/03/04 06:17:31;;;;;;;65.57;36.17;;;;;;;-1.04;67.61;94156.56;5091030;28;20028;-52
2021/03/04 06:19:59;;;;;;;78.85;36.75;;;;;;;-0.77;66.46;94142.19;5090411;28;20453;-48
2021/03/04 06:22:29;;;;;;;69.47;35.28;;;;;;;0.04;65.74;94149.09;5090842;28;20035;-53
2021/03/04 06:24:56;;;;;;;37.53;21.15;;;;;;;1.24;63.15;94142.75;5090563;28;20039;-51
2021/03/04 06:27:29;;;;;;;51.28;27.85;;;;;;;2.66;58.79;94139.63;5090699;28;20043;-47
2021/03/04 06:29:56;;;;;;;32.13;19.17;;;;;;;3.79;55.96;94136.03;5090687;28;20032;-53
2021/03/04 06:32:25;;;;;;;37.35;20.60;;;;;;;4.63;53.17;94122.69;5090319;28;20040;-51
2021/03/04 06:35:11;;;;;;;41.22;21.13;;;;;;;5.64;49.94;94130.44;5090663;28;20489;-50
2021/03/04 06:37:40;;;;;;;41.08;23.00;;;;;;;6.46;48.08;94123.25;5090511;28;20544;-48
2021/03/04 06:40:07;;;;;;;;;;;;;;;7.27;45.95;94134.28;5090846;28;20436;-50
2021/03/04 06:42:40;;;;;;;55.15;27.63;;;;;;;7.99;43.59;94125.38;5090668;28;20349;-49
2021/03/04 06:45:06;;;;;;;77.10;37.22;;;;;;;8.80;41.43;94126.97;5090016;28;20477;-51
2021/03/04 06:47:31;;;;;;;72.50;35.58;;;;;;;9.89;39.62;94123.03;5090561;28;20031;-48
2021/03/04 06:49:57;;;;;;;57.15;29.40;;;;;;;9.98;39.13;94116.38;5089117;28;20519;-52
2021/03/04 06:52:24;;;;;;;97.60;57.83;;;;;;;10.09;40.15;94118.19;5089892;28;20024;-52
2021/03/04 06:54:50;;;;;;;56.70;33.72;;;;;;;11.50;36.85;94116.97;5089294;28;20031;-51
2021/03/04 06:57:16;;;;;;;30.63;20.67;;;;;;;13.04;34.80;94111.38;5088995;28;20044;-47
2021/03/04 06:59:45;;;;;;;30.17;20.08;;;;;;;14.40;31.29;94111.63;5089377;28;20836;-49
2021/03/04 07:02:23;;;;;;;23.65;17.65;;;;;;;15.59;30.30;94097.09;5089317;28;20020;-57
2021/03/04 07:04:59;;;;;;;31.38;22.77;;;;;;;16.23;28.74;94104.59;5069531;28;20578;-52
2021/03/04 07:07:25;;;;;;;17.65;13.88;;;;;;;16.51;27.61;94104.19;5077047;28;20413;-51
2021/03/04 07:09:52;;;;;;;22.48;17.58;;;;;;;17.18;26.97;94104.75;5089682;28;20028;-50
2021/03/04 07:12:22;;;;;;;16.25;12.43;;;;;;;17.97;26.22;94095.69;5089725;28;20118;-46
2021/03/04 07:14:53;;;;;;;15.88;12.52;;;;;;;18.68;25.07;94098.25;5089792;28;20476;-47
2021/03/04 07:17:23;;;;;;;23.42;15.52;;;;;;;18.99;24.46;94068.41;5089467;28;20515;-47
2021/03/04 07:20:00;;;;;;;22.35;15.40;;;;;;;19.71;24.44;94091.75;5089386;28;20432;-48
2021/03/04 07:22:27;;;;;;;18.52;14.48;;;;;;;19.89;23.20;94093.03;5078500;28;20027;-50
2021/03/04 07:24:53;;;;;;;17.80;13.18;;;;;;;20.52;22.62;94065.16;5078802;28;20024;-46
2021/03/04 07:27:18;;;;;;;16.35;11.82;;;;;;;21.05;21.89;94080.63;5080642;28;20032;-47
2021/03/04 07:29:46;;;;;;;10.82;8.80;;;;;;;21.43;20.90;94080.31;5088119;28;20028;-47
2021/03/04 07:32:13;;;;;;;11.45;9.27;;;;;;;21.01;21.24;94072.63;5087358;28;20024;-46
2021/03/04 07:34:40;;;;;;;11.52;8.15;;;;;;;21.42;19.94;94056.34;5087344;28;20107;-49
2021/03/04 07:37:07;;;;;;;9.95;8.05;;;;;;;21.94;20.22;94067.34;5085385;28;20570;-51
2021/03/04 07:39:34;;;;;;;8.73;7.75;;;;;;;22.86;18.98;94058.16;5078707;28;20028;-50
2021/03/04 07:42:00;;;;;;;10.57;9.00;;;;;;;22.85;19.72;94061.59;5088353;28;20028;-47
2021/03/04 07:44:27;;;;;;;17.08;12.20;;;;;;;23.22;19.53;94062.31;5088171;28;20031;-50
2021/03/04 07:46:55;;;;;;;12.45;8.82;;;;;;;23.69;18.76;94060.78;5088159;28;20489;-47
2021/03/04 07:49:30;;;;;;;18.38;12.48;;;;;;;23.35;19.43;94053.25;5087939;28;20093;-50
2021/03/04 07:51:59;;;;;;;17.63;11.23;;;;;;;23.55;18.85;94020.53;5088181;28;20052;-48
2021/03/04 07:54:28;;;;;;;16.10;12.15;;;;;;;23.82;18.45;94050.91;5087012;28;20028;-48
2021/03/04 07:57:04;;;;;;;14.73;11.52;;;;;;;23.78;18.56;94042.25;5088105;28;20122;-46
2021/03/04 07:59:30;;;;;;;16.48;11.32;;;;;;;24.02;18.90;94024.53;5085591;28;20510;-48
2021/03/04 08:01:57;;;;;;;12.98;10.90;;;;;;;24.89;17.50;94031.16;5090418;28;20119;-49
2021/03/04 08:04:23;;;;;;;16.27;10.45;;;;;;;24.86;17.47;94029.59;5092048;28;20070;-48
2021/03/04 08:06:49;;;;;;;17.85;12.13;;;;;;;25.58;16.82;94023.97;5091911;28;20039;-48
2021/03/04 08:09:25;;;;;;;18.23;11.90;;;;;;;25.85;17.63;94023.84;5091754;28;20027;-45
2021/03/04 08:11:51;;;;;;;12.68;10.43;;;;;;;26.46;15.69;94022.41;5089714;28;20024;-45
2021/03/04 08:14:17;;;;;;;14.57;11.07;;;;;;;26.28;15.75;94024.44;5091696;28;20420;-47
2021/03/04 08:16:42;;;;;;;15.63;11.15;;;;;;;26.73;16.33;94019.38;5091957;28;20020;-44
2021/03/04 08:19:08;;;;;;;18.73;12.63;;;;;;;27.19;15.52;94014.19;5091437;28;20474;-46
2021/03/04 08:21:40;;;;;;;17.38;11.82;;;;;;;27.52;14.55;94014.16;5091632;28;20020;-48
2021/03/04 08:24:07;;;;;;;22.75;19.52;;;;;;;27.29;14.22;94006.81;5089563;28;20420;-45
2021/03/04 08:26:36;;;;;;;12.73;10.73;;;;;;;27.71;13.88;94011.41;5081381;28;20404;-44
2021/03/04 08:29:10;;;;;;;11.75;9.40;;;;;;;27.67;15.26;94004.84;5091297;28;20032;-44
2021/03/04 08:31:44;;;;;;;20.85;15.32;;;;;;;27.98;14.02;93998.25;5090444;28;20036;-47
2021/03/04 08:34:09;;;;;;;18.63;14.98;;;;;;;27.87;13.25;93994.28;5091288;28;20016;-43
2021/03/04 08:36:42;;;;;;;23.38;14.43;;;;;;;26.39;14.76;93994.47;5091117;28;20050;-47
2021/03/04 08:39:08;;;;;;;13.55;10.48;;;;;;;27.24;15.86;93990.31;5088917;28;20072;-53
2021/03/04 08:41:34;;;;;;;14.02;11.90;;;;;;;27.22;14.23;93984.56;5088351;28;20109;-45
2021/03/04 08:44:13;;;;;;;17.10;12.20;;;;;;;27.43;14.67;93976.25;5089035;28;20527;-44
2021/03/04 08:46:45;;;;;;;9.18;7.85;;;;;;;27.60;14.20;93960.59;5087820;28;20633;-46
2021/03/04 08:49:14;;;;;;;11.23;7.55;;;;;;;28.72;13.36;93969.72;5087274;28;20031;-47
2021/03/04 08:51:43;;;;;;;19.63;14.57;;;;;;;29.35;12.90;93972.59;5088975;28;20036;-49
2021/03/04 08:54:29;;;;;;;14.70;10.73;;;;;;;28.44;13.95;93975.13;5089217;28;20028;-46
2021/03/04 08:57:03;;;;;;;21.02;15.32;;;;;;;28.85;14.40;93965.19;5078732;28;20044;-48
2021/03/04 08:59:28;;;;;;;10.80;8.15;;;;;;;28.83;12.49;93963.00;5089675;28;20031;-48
2021/03/04 09:01:54;;;;;;;10.85;7.75;;;;;;;27.39;14.06;93959.06;5085910;28;20031;-47
2021/03/04 09:04:21;;;;;;;15.45;11.68;;;;;;;27.71;14.16;93951.81;5090148;28;20024;-47
2021/03/04 09:06:46;;;;;;;9.68;7.43;;;;;;;28.04;13.43;93944.53;5087218;28;20100;-47
2021/03/04 09:09:30;;;;;;;16.27;12.93;;;;;;;29.08;13.29;93950.34;5089907;28;20032;-46
2021/03/04 09:11:57;;;;;;;19.92;13.90;;;;;;;29.87;12.47;93945.78;5091230;28;20107;-45
2021/03/04 09:14:27;;;;;;;17.13;11.88;;;;;;;30.33;12.39;93946.44;5080216;28;20036;-45
2021/03/04 09:16:53;;;;;;;10.82;7.55;;;;;;;30.60;11.60;93953.59;5074035;28;20799;-45
2021/03/04 09:19:30;;;;;;;10.77;9.10;;;;;;;29.35;12.23;93921.38;5084470;28;20139;-47
2021/03/04 09:21:59;;;;;;;11.45;6.82;;;;;;;29.50;11.38;93919.72;5071251;28;20048;-47
2021/03/04 09:24:25;;;;;;;14.75;11.63;;;;;;;29.47;11.84;93936.00;5070931;28;20100;-50
2021/03/04 09:26:51;;;;;;;9.48;7.95;;;;;;;29.07;12.74;93934.66;5070639;28;20028;-45
2021/03/04 09:29:18;;;;;;;9.63;8.60;;;;;;;29.64;11.89;93932.25;5069461;28;20029;-50
2021/03/04 09:31:54;;;;;;;11.10;7.65;;;;;;;29.37;12.34;93893.00;5069627;28;20123;-45
2021/03/04 09:34:38;;;;;;;13.90;9.98;;;;;;;29.58;11.77;93919.97;5070167;28;20040;-46
2021/03/04 09:37:12;;;;;;;10.35;8.48;;;;;;;29.94;11.44;93929.63;5069853;28;20432;-45
2021/03/04 09:39:40;;;;;;;9.88;7.63;;;;;;;30.26;11.95;93924.13;5085908;28;20032;-47
2021/03/04 09:42:06;;;;;;;17.80;12.40;;;;;;;30.22;10.40;93904.06;5077937;28;20107;-46
2021/03/04 09:44:31;;;;;;;13.68;9.15;;;;;;;29.70;11.81;93909.66;5070229;28;20401;-46
2021/03/04 09:46:57;;;;;;;14.02;10.70;;;;;;;29.96;11.65;93915.44;5069857;28;20315;-46
2021/03/04 09:49:22;;;;;;;10.27;9.20;;;;;;;30.20;11.20;93892.63;5068836;28;20032;-47
2021/03/04 09:51:48;;;;;;;11.52;8.90;;;;;;;29.91;11.81;93900.34;5068541;28;20020;-47
2021/03/04 09:54:26;;;;;;;9.02;7.95;;;;;;;30.33;11.40;93903.72;5072461;28;20770;-47
2021/03/04 09:57:08;;;;;;;11.73;8.00;;;;;;;30.29;10.50;93906.44;5081505;28;20028;-45
2021/03/04 09:59:53;;;;;;;10.48;9.07;;;;;;;30.27;11.61;93885.69;5087738;28;20025;-60
2021/03/04 10:02:19;;;;;;;11.50;7.90;;;;;;;29.95;11.64;93897.63;5080502;28;20060;-48
2021/03/04 10:05:00;;;;;;;18.77;8.18;;;;;;;30.01;11.41;93899.19;5081916;28;20124;-51
2021/03/04 10:07:27;;;;;;;26.02;7.63;;;;;;;29.67;12.88;93888.22;5069859;28;20115;-52
2021/03/04 10:09:53;;;;;;;10.77;6.57;;;;;;;30.84;10.82;93885.09;5069549;28;20024;-52
2021/03/04 10:12:19;;;;;;;10.57;7.82;;;;;;;30.72;10.52;93882.66;5068580;28;20794;-49
2021/03/04 10:14:46;;;;;;;8.98;7.15;;;;;;;30.92;10.63;93879.63;5072986;28;20031;-48
2021/03/04 10:17:12;;;;;;;9.05;8.10;;;;;;;30.76;11.46;93871.34;5089634;28;20506;-44
2021/03/04 10:19:39;;;;;;;16.25;7.85;;;;;;;30.84;10.20;93865.84;5069746;28;20032;-45
2021/03/04 10:22:04;;;;;;;7.75;5.85;;;;;;;30.52;10.93;93862.91;5070710;28;20718;-45
2021/03/04 10:24:30;;;;;;;8.75;6.88;;;;;;;30.91;9.78;93858.19;5069768;28;20032;-45
2021/03/04 10:26:58;;;;;;;19.38;7.38;;;;;;;29.61;10.74;93850.31;5069584;28;20854;-46
2021/03/04 10:29:27;;;;;;;9.75;6.57;;;;;;;29.99;11.36;93854.31;5068141;28;20040;-47
2021/03/04 10:31:53;;;;;;;10.50;7.97;;;;;;;29.89;10.25;93848.31;5067785;28;20079;-45
2021/03/04 10:34:19;;;;;;;14.82;7.55;;;;;;;29.16;12.50;93840.47;5068082;28;20033;-45
2021/03/04 10:36:44;;;;;;;9.32;7.20;;;;;;;29.82;11.70;93841.03;5066807;28;20032;-47
2021/03/04 10:39:10;;;;;;;9.93;7.22;;;;;;;29.27;10.51;93835.81;5067671;28;20049;-46
2021/03/04 10:41:35;;;;;;;10.85;6.65;;;;;;;28.85;12.07;93828.75;5066826;28;20025;-45
2021/03/04 10:44:01;;;;;;;10.93;7.50;;;;;;;29.35;10.83;93823.94;5068730;28;20054;-45
2021/03/04 10:46:29;;;;;;;10.98;6.88;;;;;;;30.09;10.23;93811.88;5068626;28;20035;-44
2021/03/04 10:48:55;;;;;;;7.55;5.88;;;;;;;29.90;9.67;93807.06;5069265;28;20033;-45
2021/03/04 10:51:20;;;;;;;9.68;6.88;;;;;;;30.11;10.43;93799.78;5069200;28;20107;-45
2021/03/04 10:53:46;;;;;;;9.63;6.72;;;;;;;29.58;10.75;93804.03;5068033;28;20035;-44
2021/03/04 10:56:11;;;;;;;21.73;10.85;;;;;;;30.15;9.70;93794.94;5068950;28;20024;-45
2021/03/04 10:58:36;;;;;;;17.23;8.45;;;;;;;30.31;9.85;93791.81;5071978;28;20036;-45
2021/03/04 11:01:02;;;;;;;6.68;5.13;;;;;;;30.85;10.55;93778.19;5068978;28;20048;-44
2021/03/04 11:03:27;;;;;;;7.78;5.10;;;;;;;30.47;10.60;93783.69;5075583;28;20510;-46
2021/03/04 11:05:53;;;;;;;8.07;5.55;;;;;;;30.04;10.88;93773.28;5066678;28;20028;-44
2021/03/04 11:08:18;;;;;;;11.20;7.22;;;;;;;30.41;9.90;93774.97;5073421;28;20451;-43
2021/03/04 11:10:46;;;;;;;9.63;5.95;;;;;;;30.84;10.59;93766.06;5088694;28;20067;-42
2021/03/04 11:13:14;;;;;;;11.38;5.40;;;;;;;30.53;10.25;93772.44;5085209;28;20444;-46
2021/03/04 11:15:40;;;;;;;9.27;5.65;;;;;;;30.03;9.96;93760.47;5068844;28;20032;-46
2021/03/04 11:18:05;;;;;;;13.82;6.35;;;;;;;30.46;9.73;93765.13;5068828;28;20032;-44
2021/03/04 11:20:31;;;;;;;7.90;5.97;;;;;;;30.08;11.26;93769.84;5068261;28;20028;-46
2021/03/04 11:22:56;;;;;;;8.55;5.50;;;;;;;29.44;10.74;93735.31;5071952;28;20035;-46
2021/03/04 11:25:22;;;;;;;8.57;6.15;;;;;;;28.79;11.47;93758.25;5086400;28;20119;-43